sensor_id;sensor_type;location;lat;lon;timestamp;P1;durP1;ratioP1;P2;durP2;ratioP2
5175;SDS011;2607;50.934;6.934;2023-08-17T00:02:16;6.93;;;6.30;;
5175;SDS011;2607;50.934;6.934;2023-08-17T00:04:41;8.40;;;7.13;;
5175;SDS011;2607;50.934;6.934;2023-08-17T00:07:07;6.80;;;6.20;;
5175;SDS011;2607;50.934;6.934;2023-08-17T00:09:32;6.73;;;5.43;;
5175;SDS011;2607;50.934;6.934;2023-08-17T00:11:58;7.70;;;6.70;;
5175;SDS011;2607;50.934;6.934;2023-08-17T00:14:24;11.50;;;6.00;;
5175;SDS011;2607;50.934;6.934;2023-08-17T00:16:49;9.07;;;6.20;;
5175;SDS011;2607;50.934;6.934;2023-08-17T00:19:15;7.23;;;6.40;;
5175;SDS011;2607;50.934;6.934;2023-08-17T00:21:41;8.10;;;6.23;;
5175;SDS011;2607;50.934;6.934;2023-08-17T00:24:07;6.83;;;6.10;;
5175;SDS011;2607;50.934;6.934;2023-08-17T00:26:36;11.30;;;6.43;;
5175;SDS011;2607;50.934;6.934;2023-08-17T00:29:01;6.90;;;6.23;;
5175;SDS011;2607;50.934;6.934;2023-08-17T00:31:27;8.20;;;6.00;;
5175;SDS011;2607;50.934;6.934;2023-08-17T00:33:53;8.30;;;6.07;;
5175;SDS011;2607;50.934;6.934;2023-08-17T00:36:18;9.73;;;6.87;;
5175;SDS011;2607;50.934;6.934;2023-08-17T00:38:44;6.20;;;5.70;;
5175;SDS011;2607;50.934;6.934;2023-08-17T00:41:09;7.50;;;6.17;;
5175;SDS011;2607;50.934;6.934;2023-08-17T00:43:35;10.10;;;6.10;;
5175;SDS011;2607;50.934;6.934;2023-08-17T00:46:01;8.00;;;6.60;;
5175;SDS011;2607;50.934;6.934;2023-08-17T00:48:27;11.17;;;6.27;;
5175;SDS011;2607;50.934;6.934;2023-08-17T00:50:54;6.90;;;6.30;;
5175;SDS011;2607;50.934;6.934;2023-08-17T00:53:22;6.60;;;6.00;;
5175;SDS011;2607;50.934;6.934;2023-08-17T00:55:52;7.03;;;6.40;;
5175;SDS011;2607;50.934;6.934;2023-08-17T00:58:18;6.40;;;5.70;;
5175;SDS011;2607;50.934;6.934;2023-08-17T01:00:45;6.70;;;5.40;;
5175;SDS011;2607;50.934;6.934;2023-08-17T01:03:11;8.83;;;6.30;;
5175;SDS011;2607;50.934;6.934;2023-08-17T01:05:36;8.00;;;6.30;;
5175;SDS011;2607;50.934;6.934;2023-08-17T01:08:02;6.13;;;5.53;;
5175;SDS011;2607;50.934;6.934;2023-08-17T01:10:31;6.33;;;5.73;;
5175;SDS011;2607;50.934;6.934;2023-08-17T01:13:18;7.60;;;6.20;;
5175;SDS011;2607;50.934;6.934;2023-08-17T01:15:50;7.70;;;5.83;;
5175;SDS011;2607;50.934;6.934;2023-08-17T01:18:24;7.60;;;6.13;;
5175;SDS011;2607;50.934;6.934;2023-08-17T01:20:56;6.17;;;5.63;;
5175;SDS011;2607;50.934;6.934;2023-08-17T01:23:22;10.10;;;6.03;;
5175;SDS011;2607;50.934;6.934;2023-08-17T01:25:48;6.33;;;5.87;;
5175;SDS011;2607;50.934;6.934;2023-08-17T01:28:13;7.67;;;5.97;;
5175;SDS011;2607;50.934;6.934;2023-08-17T01:30:42;6.70;;;6.10;;
5175;SDS011;2607;50.934;6.934;2023-08-17T01:33:17;7.03;;;6.47;;
5175;SDS011;2607;50.934;6.934;2023-08-17T01:36:05;7.70;;;5.47;;
5175;SDS011;2607;50.934;6.934;2023-08-17T01:38:44;7.83;;;6.00;;
5175;SDS011;2607;50.934;6.934;2023-08-17T01:41:10;6.40;;;5.80;;
5175;SDS011;2607;50.934;6.934;2023-08-17T01:43:43;6.93;;;6.27;;
5175;SDS011;2607;50.934;6.934;2023-08-17T01:46:13;6.27;;;5.77;;
5175;SDS011;2607;50.934;6.934;2023-08-17T01:48:42;7.53;;;6.27;;
5175;SDS011;2607;50.934;6.934;2023-08-17T01:51:11;6.90;;;6.30;;
5175;SDS011;2607;50.934;6.934;2023-08-17T01:53:41;6.50;;;6.00;;
5175;SDS011;2607;50.934;6.934;2023-08-17T01:56:06;7.67;;;7.00;;
5175;SDS011;2607;50.934;6.934;2023-08-17T01:58:32;6.47;;;5.87;;
5175;SDS011;2607;50.934;6.934;2023-08-17T02:00:57;6.80;;;6.20;;
5175;SDS011;2607;50.934;6.934;2023-08-17T02:03:23;5.50;;;5.13;;
5175;SDS011;2607;50.934;6.934;2023-08-17T02:05:49;6.70;;;6.00;;
5175;SDS011;2607;50.934;6.934;2023-08-17T02:08:14;6.00;;;5.53;;
5175;SDS011;2607;50.934;6.934;2023-08-17T02:10:40;6.97;;;5.90;;
5175;SDS011;2607;50.934;6.934;2023-08-17T02:13:05;6.33;;;5.70;;
5175;SDS011;2607;50.934;6.934;2023-08-17T02:15:31;7.50;;;6.03;;
5175;SDS011;2607;50.934;6.934;2023-08-17T02:17:57;5.60;;;5.20;;
5175;SDS011;2607;50.934;6.934;2023-08-17T02:20:25;6.23;;;5.67;;
5175;SDS011;2607;50.934;6.934;2023-08-17T02:22:50;5.93;;;5.53;;
5175;SDS011;2607;50.934;6.934;2023-08-17T02:25:16;10.13;;;5.60;;
5175;SDS011;2607;50.934;6.934;2023-08-17T02:27:42;5.03;;;4.70;;
5175;SDS011;2607;50.934;6.934;2023-08-17T02:30:07;6.30;;;5.80;;
5175;SDS011;2607;50.934;6.934;2023-08-17T02:32:33;8.57;;;5.50;;
5175;SDS011;2607;50.934;6.934;2023-08-17T02:34:59;6.40;;;5.90;;
5175;SDS011;2607;50.934;6.934;2023-08-17T02:37:24;11.10;;;5.50;;
5175;SDS011;2607;50.934;6.934;2023-08-17T02:39:50;5.93;;;5.53;;
5175;SDS011;2607;50.934;6.934;2023-08-17T02:42:15;5.33;;;5.03;;
5175;SDS011;2607;50.934;6.934;2023-08-17T02:44:41;7.13;;;6.43;;
5175;SDS011;2607;50.934;6.934;2023-08-17T02:47:06;9.73;;;5.97;;
5175;SDS011;2607;50.934;6.934;2023-08-17T02:49:32;5.70;;;5.17;;
5175;SDS011;2607;50.934;6.934;2023-08-17T02:51:57;5.27;;;4.87;;
5175;SDS011;2607;50.934;6.934;2023-08-17T02:54:23;5.77;;;5.00;;
5175;SDS011;2607;50.934;6.934;2023-08-17T02:56:48;7.10;;;5.23;;
5175;SDS011;2607;50.934;6.934;2023-08-17T02:59:14;5.70;;;5.03;;
5175;SDS011;2607;50.934;6.934;2023-08-17T03:01:39;5.53;;;5.13;;
5175;SDS011;2607;50.934;6.934;2023-08-17T03:04:05;5.67;;;5.10;;
5175;SDS011;2607;50.934;6.934;2023-08-17T03:06:30;6.87;;;6.10;;
5175;SDS011;2607;50.934;6.934;2023-08-17T03:08:56;5.80;;;5.30;;
5175;SDS011;2607;50.934;6.934;2023-08-17T03:11:21;5.50;;;5.00;;
5175;SDS011;2607;50.934;6.934;2023-08-17T03:13:47;5.67;;;5.27;;
5175;SDS011;2607;50.934;6.934;2023-08-17T03:16:13;10.40;;;8.93;;
5175;SDS011;2607;50.934;6.934;2023-08-17T03:18:40;9.90;;;6.40;;
5175;SDS011;2607;50.934;6.934;2023-08-17T03:21:06;5.70;;;5.13;;
5175;SDS011;2607;50.934;6.934;2023-08-17T03:23:32;7.93;;;7.13;;
5175;SDS011;2607;50.934;6.934;2023-08-17T03:25:58;5.43;;;5.03;;
5175;SDS011;2607;50.934;6.934;2023-08-17T03:28:23;5.40;;;4.90;;
5175;SDS011;2607;50.934;6.934;2023-08-17T03:30:50;5.97;;;5.20;;
5175;SDS011;2607;50.934;6.934;2023-08-17T03:33:20;5.90;;;5.37;;
5175;SDS011;2607;50.934;6.934;2023-08-17T03:35:45;7.03;;;5.20;;
5175;SDS011;2607;50.934;6.934;2023-08-17T03:38:11;6.40;;;5.80;;
5175;SDS011;2607;50.934;6.934;2023-08-17T03:40:36;6.27;;;5.67;;
5175;SDS011;2607;50.934;6.934;2023-08-17T03:43:02;6.97;;;6.07;;
5175;SDS011;2607;50.934;6.934;2023-08-17T03:45:28;7.40;;;5.80;;
5175;SDS011;2607;50.934;6.934;2023-08-17T03:47:55;5.50;;;5.20;;
5175;SDS011;2607;50.934;6.934;2023-08-17T03:50:21;5.90;;;5.40;;
5175;SDS011;2607;50.934;6.934;2023-08-17T03:52:46;7.10;;;6.47;;
5175;SDS011;2607;50.934;6.934;2023-08-17T03:55:12;5.83;;;5.40;;
5175;SDS011;2607;50.934;6.934;2023-08-17T03:57:37;6.27;;;5.70;;
5175;SDS011;2607;50.934;6.934;2023-08-17T04:00:03;5.83;;;5.20;;
5175;SDS011;2607;50.934;6.934;2023-08-17T04:02:31;12.80;;;7.57;;
5175;SDS011;2607;50.934;6.934;2023-08-17T04:04:56;7.40;;;6.00;;
5175;SDS011;2607;50.934;6.934;2023-08-17T04:07:22;6.87;;;6.03;;
5175;SDS011;2607;50.934;6.934;2023-08-17T04:09:48;6.50;;;6.00;;
5175;SDS011;2607;50.934;6.934;2023-08-17T04:12:14;6.53;;;5.90;;
5175;SDS011;2607;50.934;6.934;2023-08-17T04:14:39;7.57;;;6.87;;
5175;SDS011;2607;50.934;6.934;2023-08-17T04:17:05;8.00;;;6.80;;
5175;SDS011;2607;50.934;6.934;2023-08-17T04:19:31;8.40;;;7.60;;
5175;SDS011;2607;50.934;6.934;2023-08-17T04:21:56;7.97;;;7.37;;
5175;SDS011;2607;50.934;6.934;2023-08-17T04:24:23;8.53;;;7.73;;
5175;SDS011;2607;50.934;6.934;2023-08-17T04:26:48;8.50;;;7.63;;
5175;SDS011;2607;50.934;6.934;2023-08-17T04:29:14;8.83;;;7.90;;
5175;SDS011;2607;50.934;6.934;2023-08-17T04:31:40;8.10;;;7.37;;
5175;SDS011;2607;50.934;6.934;2023-08-17T04:34:05;8.63;;;7.23;;
5175;SDS011;2607;50.934;6.934;2023-08-17T04:36:31;7.73;;;7.23;;
5175;SDS011;2607;50.934;6.934;2023-08-17T04:38:56;8.00;;;7.40;;
5175;SDS011;2607;50.934;6.934;2023-08-17T04:41:22;8.60;;;6.70;;
5175;SDS011;2607;50.934;6.934;2023-08-17T04:43:47;7.40;;;6.73;;
5175;SDS011;2607;50.934;6.934;2023-08-17T04:46:14;7.50;;;6.90;;
5175;SDS011;2607;50.934;6.934;2023-08-17T04:48:40;7.33;;;6.73;;
5175;SDS011;2607;50.934;6.934;2023-08-17T04:51:05;9.97;;;7.57;;
5175;SDS011;2607;50.934;6.934;2023-08-17T04:53:31;7.87;;;6.47;;
5175;SDS011;2607;50.934;6.934;2023-08-17T04:55:58;7.97;;;7.33;;
5175;SDS011;2607;50.934;6.934;2023-08-17T04:58:23;7.60;;;7.10;;
5175;SDS011;2607;50.934;6.934;2023-08-17T05:00:49;7.10;;;6.50;;
5175;SDS011;2607;50.934;6.934;2023-08-17T05:03:14;11.00;;;6.77;;
5175;SDS011;2607;50.934;6.934;2023-08-17T05:05:40;7.00;;;6.37;;
5175;SDS011;2607;50.934;6.934;2023-08-17T05:08:05;5.80;;;5.40;;
5175;SDS011;2607;50.934;6.934;2023-08-17T05:10:31;8.03;;;7.10;;
5175;SDS011;2607;50.934;6.934;2023-08-17T05:12:57;6.43;;;5.90;;
5175;SDS011;2607;50.934;6.934;2023-08-17T05:15:22;6.23;;;5.80;;
5175;SDS011;2607;50.934;6.934;2023-08-17T05:17:48;7.87;;;7.00;;
5175;SDS011;2607;50.934;6.934;2023-08-17T05:20:13;7.57;;;6.37;;
5175;SDS011;2607;50.934;6.934;2023-08-17T05:22:39;7.80;;;6.43;;
5175;SDS011;2607;50.934;6.934;2023-08-17T05:25:05;6.70;;;6.00;;
5175;SDS011;2607;50.934;6.934;2023-08-17T05:27:31;9.03;;;6.30;;
5175;SDS011;2607;50.934;6.934;2023-08-17T05:29:56;6.23;;;5.73;;
5175;SDS011;2607;50.934;6.934;2023-08-17T05:32:22;7.10;;;6.60;;
5175;SDS011;2607;50.934;6.934;2023-08-17T05:34:47;8.23;;;7.00;;
5175;SDS011;2607;50.934;6.934;2023-08-17T05:37:13;7.63;;;6.60;;
5175;SDS011;2607;50.934;6.934;2023-08-17T05:39:40;7.73;;;6.67;;
5175;SDS011;2607;50.934;6.934;2023-08-17T05:42:06;7.03;;;6.33;;
5175;SDS011;2607;50.934;6.934;2023-08-17T05:44:32;10.70;;;6.90;;
5175;SDS011;2607;50.934;6.934;2023-08-17T05:46:58;10.07;;;5.97;;
5175;SDS011;2607;50.934;6.934;2023-08-17T05:49:23;9.00;;;6.50;;
5175;SDS011;2607;50.934;6.934;2023-08-17T05:51:49;6.87;;;6.27;;
5175;SDS011;2607;50.934;6.934;2023-08-17T05:54:14;7.63;;;6.90;;
5175;SDS011;2607;50.934;6.934;2023-08-17T05:56:40;9.00;;;6.60;;
5175;SDS011;2607;50.934;6.934;2023-08-17T05:59:11;12.10;;;6.50;;
5175;SDS011;2607;50.934;6.934;2023-08-17T06:01:37;12.90;;;7.83;;
5175;SDS011;2607;50.934;6.934;2023-08-17T06:04:03;7.23;;;6.53;;
5175;SDS011;2607;50.934;6.934;2023-08-17T06:06:29;9.00;;;6.90;;
5175;SDS011;2607;50.934;6.934;2023-08-17T06:08:55;6.60;;;6.10;;
5175;SDS011;2607;50.934;6.934;2023-08-17T06:11:20;7.30;;;6.70;;
5175;SDS011;2607;50.934;6.934;2023-08-17T06:13:46;6.33;;;5.80;;
5175;SDS011;2607;50.934;6.934;2023-08-17T06:16:11;7.77;;;6.97;;
5175;SDS011;2607;50.934;6.934;2023-08-17T06:18:37;13.23;;;9.03;;
5175;SDS011;2607;50.934;6.934;2023-08-17T06:21:03;7.83;;;7.03;;
5175;SDS011;2607;50.934;6.934;2023-08-17T06:23:28;8.10;;;7.30;;
5175;SDS011;2607;50.934;6.934;2023-08-17T06:25:57;13.93;;;8.30;;
5175;SDS011;2607;50.934;6.934;2023-08-17T06:28:23;12.10;;;7.93;;
5175;SDS011;2607;50.934;6.934;2023-08-17T06:30:53;13.73;;;8.00;;
5175;SDS011;2607;50.934;6.934;2023-08-17T06:33:19;9.20;;;8.27;;
5175;SDS011;2607;50.934;6.934;2023-08-17T06:35:46;8.57;;;7.77;;
5175;SDS011;2607;50.934;6.934;2023-08-17T06:38:11;11.37;;;8.77;;
5175;SDS011;2607;50.934;6.934;2023-08-17T06:40:37;9.97;;;7.50;;
5175;SDS011;2607;50.934;6.934;2023-08-17T06:43:03;11.07;;;8.33;;
5175;SDS011;2607;50.934;6.934;2023-08-17T06:45:28;13.47;;;8.87;;
5175;SDS011;2607;50.934;6.934;2023-08-17T06:47:56;11.83;;;8.90;;
5175;SDS011;2607;50.934;6.934;2023-08-17T06:50:21;10.70;;;9.07;;
5175;SDS011;2607;50.934;6.934;2023-08-17T06:52:47;9.03;;;8.13;;
5175;SDS011;2607;50.934;6.934;2023-08-17T06:55:12;9.80;;;8.50;;
5175;SDS011;2607;50.934;6.934;2023-08-17T06:57:38;9.50;;;8.17;;
5175;SDS011;2607;50.934;6.934;2023-08-17T07:00:04;9.23;;;8.40;;
5175;SDS011;2607;50.934;6.934;2023-08-17T07:02:30;8.67;;;7.70;;
5175;SDS011;2607;50.934;6.934;2023-08-17T07:04:56;23.83;;;10.30;;
5175;SDS011;2607;50.934;6.934;2023-08-17T07:07:21;10.80;;;8.77;;
5175;SDS011;2607;50.934;6.934;2023-08-17T07:09:47;10.27;;;8.80;;
5175;SDS011;2607;50.934;6.934;2023-08-17T07:12:13;8.30;;;7.60;;
5175;SDS011;2607;50.934;6.934;2023-08-17T07:14:38;10.80;;;8.37;;
5175;SDS011;2607;50.934;6.934;2023-08-17T07:17:04;9.37;;;8.53;;
5175;SDS011;2607;50.934;6.934;2023-08-17T07:19:29;12.10;;;9.40;;
5175;SDS011;2607;50.934;6.934;2023-08-17T07:21:55;9.63;;;8.63;;
5175;SDS011;2607;50.934;6.934;2023-08-17T07:24:20;14.53;;;9.90;;
5175;SDS011;2607;50.934;6.934;2023-08-17T07:26:46;16.23;;;9.00;;
5175;SDS011;2607;50.934;6.934;2023-08-17T07:29:11;12.70;;;8.80;;
5175;SDS011;2607;50.934;6.934;2023-08-17T07:31:38;13.50;;;8.50;;
5175;SDS011;2607;50.934;6.934;2023-08-17T07:34:04;14.23;;;8.60;;
5175;SDS011;2607;50.934;6.934;2023-08-17T07:36:31;15.60;;;9.20;;
5175;SDS011;2607;50.934;6.934;2023-08-17T07:38:57;11.53;;;8.57;;
5175;SDS011;2607;50.934;6.934;2023-08-17T07:41:22;15.70;;;10.13;;
5175;SDS011;2607;50.934;6.934;2023-08-17T07:43:48;13.27;;;9.70;;
5175;SDS011;2607;50.934;6.934;2023-08-17T07:46:13;16.63;;;11.60;;
5175;SDS011;2607;50.934;6.934;2023-08-17T07:48:39;13.07;;;9.13;;
5175;SDS011;2607;50.934;6.934;2023-08-17T07:51:04;14.27;;;9.03;;
5175;SDS011;2607;50.934;6.934;2023-08-17T07:53:30;12.40;;;7.93;;
5175;SDS011;2607;50.934;6.934;2023-08-17T07:55:55;13.37;;;8.63;;
5175;SDS011;2607;50.934;6.934;2023-08-17T07:58:21;18.13;;;9.50;;
5175;SDS011;2607;50.934;6.934;2023-08-17T08:00:46;23.60;;;9.90;;
5175;SDS011;2607;50.934;6.934;2023-08-17T08:03:12;12.23;;;9.30;;
5175;SDS011;2607;50.934;6.934;2023-08-17T08:05:39;13.43;;;9.60;;
5175;SDS011;2607;50.934;6.934;2023-08-17T08:08:05;17.63;;;9.70;;
5175;SDS011;2607;50.934;6.934;2023-08-17T08:10:30;16.27;;;9.77;;
5175;SDS011;2607;50.934;6.934;2023-08-17T08:12:56;16.90;;;9.53;;
5175;SDS011;2607;50.934;6.934;2023-08-17T08:15:21;14.03;;;10.47;;
5175;SDS011;2607;50.934;6.934;2023-08-17T08:17:47;12.90;;;9.83;;
5175;SDS011;2607;50.934;6.934;2023-08-17T08:20:13;17.13;;;10.37;;
5175;SDS011;2607;50.934;6.934;2023-08-17T08:22:38;13.40;;;9.60;;
5175;SDS011;2607;50.934;6.934;2023-08-17T08:25:04;15.07;;;10.40;;
5175;SDS011;2607;50.934;6.934;2023-08-17T08:27:29;13.07;;;9.97;;
5175;SDS011;2607;50.934;6.934;2023-08-17T08:29:55;11.67;;;9.63;;
5175;SDS011;2607;50.934;6.934;2023-08-17T08:32:21;18.20;;;11.23;;
5175;SDS011;2607;50.934;6.934;2023-08-17T08:34:46;15.20;;;11.20;;
5175;SDS011;2607;50.934;6.934;2023-08-17T08:37:12;14.80;;;10.57;;
5175;SDS011;2607;50.934;6.934;2023-08-17T08:39:50;14.80;;;10.17;;
5175;SDS011;2607;50.934;6.934;2023-08-17T08:42:17;15.80;;;9.93;;
5175;SDS011;2607;50.934;6.934;2023-08-17T08:44:43;15.27;;;10.20;;
5175;SDS011;2607;50.934;6.934;2023-08-17T08:47:09;16.83;;;10.37;;
5175;SDS011;2607;50.934;6.934;2023-08-17T08:49:37;14.80;;;9.50;;
5175;SDS011;2607;50.934;6.934;2023-08-17T08:52:05;15.97;;;11.47;;
5175;SDS011;2607;50.934;6.934;2023-08-17T08:54:32;15.30;;;10.40;;
5175;SDS011;2607;50.934;6.934;2023-08-17T08:57:03;13.70;;;11.30;;
5175;SDS011;2607;50.934;6.934;2023-08-17T08:59:33;16.57;;;11.00;;
5175;SDS011;2607;50.934;6.934;2023-08-17T09:02:00;15.90;;;11.83;;
5175;SDS011;2607;50.934;6.934;2023-08-17T09:04:27;20.80;;;10.70;;
5175;SDS011;2607;50.934;6.934;2023-08-17T09:06:54;23.23;;;11.80;;
5175;SDS011;2607;50.934;6.934;2023-08-17T09:09:21;13.17;;;10.37;;
5175;SDS011;2607;50.934;6.934;2023-08-17T09:11:48;17.43;;;11.07;;
5175;SDS011;2607;50.934;6.934;2023-08-17T09:14:13;17.13;;;11.70;;
5175;SDS011;2607;50.934;6.934;2023-08-17T09:16:39;18.77;;;12.90;;
5175;SDS011;2607;50.934;6.934;2023-08-17T09:19:05;18.17;;;12.20;;
5175;SDS011;2607;50.934;6.934;2023-08-17T09:21:31;18.70;;;12.53;;
5175;SDS011;2607;50.934;6.934;2023-08-17T09:23:58;21.93;;;13.37;;
5175;SDS011;2607;50.934;6.934;2023-08-17T09:26:23;21.03;;;14.10;;
5175;SDS011;2607;50.934;6.934;2023-08-17T09:28:52;18.87;;;13.77;;
5175;SDS011;2607;50.934;6.934;2023-08-17T09:31:25;24.40;;;14.43;;
5175;SDS011;2607;50.934;6.934;2023-08-17T09:33:51;21.23;;;14.07;;
5175;SDS011;2607;50.934;6.934;2023-08-17T09:36:21;18.17;;;13.17;;
5175;SDS011;2607;50.934;6.934;2023-08-17T09:38:48;18.03;;;13.60;;
5175;SDS011;2607;50.934;6.934;2023-08-17T09:41:17;19.60;;;13.87;;
5175;SDS011;2607;50.934;6.934;2023-08-17T09:43:43;20.60;;;13.47;;
5175;SDS011;2607;50.934;6.934;2023-08-17T09:46:10;19.73;;;14.43;;
5175;SDS011;2607;50.934;6.934;2023-08-17T09:48:36;19.90;;;14.87;;
5175;SDS011;2607;50.934;6.934;2023-08-17T09:51:02;24.70;;;14.80;;
5175;SDS011;2607;50.934;6.934;2023-08-17T09:53:27;21.63;;;15.87;;
5175;SDS011;2607;50.934;6.934;2023-08-17T09:55:53;19.60;;;14.80;;
5175;SDS011;2607;50.934;6.934;2023-08-17T09:58:22;27.27;;;15.40;;
5175;SDS011;2607;50.934;6.934;2023-08-17T10:00:48;25.50;;;15.77;;
5175;SDS011;2607;50.934;6.934;2023-08-17T10:03:15;23.13;;;14.60;;
5175;SDS011;2607;50.934;6.934;2023-08-17T10:05:42;24.73;;;14.93;;
5175;SDS011;2607;50.934;6.934;2023-08-17T10:08:10;20.13;;;14.40;;
5175;SDS011;2607;50.934;6.934;2023-08-17T10:10:38;17.90;;;13.07;;
5175;SDS011;2607;50.934;6.934;2023-08-17T10:13:12;21.80;;;14.53;;
5175;SDS011;2607;50.934;6.934;2023-08-17T10:16:09;26.03;;;13.10;;
5175;SDS011;2607;50.934;6.934;2023-08-17T10:21:23;18.40;;;13.90;;
5175;SDS011;2607;50.934;6.934;2023-08-17T10:23:56;19.93;;;14.07;;
5175;SDS011;2607;50.934;6.934;2023-08-17T10:26:23;18.60;;;13.53;;
5175;SDS011;2607;50.934;6.934;2023-08-17T10:28:49;19.67;;;13.10;;
5175;SDS011;2607;50.934;6.934;2023-08-17T10:31:16;25.77;;;14.77;;
5175;SDS011;2607;50.934;6.934;2023-08-17T10:33:42;16.37;;;13.63;;
5175;SDS011;2607;50.934;6.934;2023-08-17T10:36:11;16.83;;;14.20;;
5175;SDS011;2607;50.934;6.934;2023-08-17T10:38:37;15.10;;;12.50;;
5175;SDS011;2607;50.934;6.934;2023-08-17T10:41:13;14.47;;;11.90;;
5175;SDS011;2607;50.934;6.934;2023-08-17T10:43:55;18.20;;;13.37;;
5175;SDS011;2607;50.934;6.934;2023-08-17T10:46:21;15.60;;;13.90;;
5175;SDS011;2607;50.934;6.934;2023-08-17T10:49:00;18.97;;;13.13;;
5175;SDS011;2607;50.934;6.934;2023-08-17T10:51:33;19.40;;;14.43;;
5175;SDS011;2607;50.934;6.934;2023-08-17T10:53:59;17.40;;;14.40;;
5175;SDS011;2607;50.934;6.934;2023-08-17T10:56:28;16.57;;;14.80;;
5175;SDS011;2607;50.934;6.934;2023-08-17T10:58:54;27.90;;;18.23;;
5175;SDS011;2607;50.934;6.934;2023-08-17T11:01:33;17.73;;;14.23;;
5175;SDS011;2607;50.934;6.934;2023-08-17T11:04:15;19.57;;;15.30;;
5175;SDS011;2607;50.934;6.934;2023-08-17T11:06:42;17.83;;;14.30;;
5175;SDS011;2607;50.934;6.934;2023-08-17T11:09:08;22.37;;;15.60;;
5175;SDS011;2607;50.934;6.934;2023-08-17T11:11:34;16.80;;;13.50;;
5175;SDS011;2607;50.934;6.934;2023-08-17T11:14:00;16.30;;;13.40;;
5175;SDS011;2607;50.934;6.934;2023-08-17T11:16:25;17.63;;;12.37;;
5175;SDS011;2607;50.934;6.934;2023-08-17T11:18:51;16.87;;;12.87;;
5175;SDS011;2607;50.934;6.934;2023-08-17T11:21:17;18.70;;;13.50;;
5175;SDS011;2607;50.934;6.934;2023-08-17T11:23:43;13.70;;;12.03;;
5175;SDS011;2607;50.934;6.934;2023-08-17T11:26:09;14.90;;;12.50;;
5175;SDS011;2607;50.934;6.934;2023-08-17T11:28:35;17.70;;;12.90;;
5175;SDS011;2607;50.934;6.934;2023-08-17T11:31:19;17.73;;;13.67;;
5175;SDS011;2607;50.934;6.934;2023-08-17T11:33:45;21.20;;;14.30;;
5175;SDS011;2607;50.934;6.934;2023-08-17T11:36:11;16.17;;;13.63;;
5175;SDS011;2607;50.934;6.934;2023-08-17T11:38:38;16.60;;;12.80;;
5175;SDS011;2607;50.934;6.934;2023-08-17T11:41:06;14.60;;;12.37;;
5175;SDS011;2607;50.934;6.934;2023-08-17T11:43:35;18.30;;;12.93;;
5175;SDS011;2607;50.934;6.934;2023-08-17T11:46:01;23.30;;;12.23;;
5175;SDS011;2607;50.934;6.934;2023-08-17T11:48:28;21.40;;;12.60;;
5175;SDS011;2607;50.934;6.934;2023-08-17T11:50:54;17.63;;;15.00;;
5175;SDS011;2607;50.934;6.934;2023-08-17T11:53:23;16.60;;;12.00;;
5175;SDS011;2607;50.934;6.934;2023-08-17T11:55:48;15.70;;;12.20;;
5175;SDS011;2607;50.934;6.934;2023-08-17T11:58:14;12.70;;;11.50;;
5175;SDS011;2607;50.934;6.934;2023-08-17T12:00:41;13.57;;;11.67;;
5175;SDS011;2607;50.934;6.934;2023-08-17T12:03:12;17.27;;;11.60;;
5175;SDS011;2607;50.934;6.934;2023-08-17T12:05:39;13.43;;;12.07;;
5175;SDS011;2607;50.934;6.934;2023-08-17T12:08:07;16.60;;;12.70;;
5175;SDS011;2607;50.934;6.934;2023-08-17T12:10:33;14.87;;;12.03;;
5175;SDS011;2607;50.934;6.934;2023-08-17T12:12:59;12.80;;;11.37;;
5175;SDS011;2607;50.934;6.934;2023-08-17T12:15:29;15.10;;;11.80;;
5175;SDS011;2607;50.934;6.934;2023-08-17T12:17:58;15.20;;;11.73;;
5175;SDS011;2607;50.934;6.934;2023-08-17T12:20:25;15.30;;;13.00;;
5175;SDS011;2607;50.934;6.934;2023-08-17T12:22:50;12.10;;;10.97;;
5175;SDS011;2607;50.934;6.934;2023-08-17T12:25:16;14.83;;;10.40;;
5175;SDS011;2607;50.934;6.934;2023-08-17T12:27:46;14.00;;;11.93;;
5175;SDS011;2607;50.934;6.934;2023-08-17T12:30:34;12.33;;;10.70;;
5175;SDS011;2607;50.934;6.934;2023-08-17T12:33:01;13.80;;;11.07;;
5175;SDS011;2607;50.934;6.934;2023-08-17T12:35:27;14.07;;;12.00;;
5175;SDS011;2607;50.934;6.934;2023-08-17T12:37:53;12.20;;;10.80;;
5175;SDS011;2607;50.934;6.934;2023-08-17T12:40:19;13.37;;;11.23;;
5175;SDS011;2607;50.934;6.934;2023-08-17T12:42:45;10.77;;;9.80;;
5175;SDS011;2607;50.934;6.934;2023-08-17T12:45:12;13.10;;;11.27;;
5175;SDS011;2607;50.934;6.934;2023-08-17T12:47:37;15.07;;;12.33;;
5175;SDS011;2607;50.934;6.934;2023-08-17T12:50:03;18.33;;;11.73;;
5175;SDS011;2607;50.934;6.934;2023-08-17T12:52:29;15.03;;;11.23;;
5175;SDS011;2607;50.934;6.934;2023-08-17T12:54:55;12.60;;;11.30;;
5175;SDS011;2607;50.934;6.934;2023-08-17T12:57:20;15.67;;;11.67;;
5175;SDS011;2607;50.934;6.934;2023-08-17T12:59:46;10.97;;;9.60;;
5175;SDS011;2607;50.934;6.934;2023-08-17T13:02:11;14.23;;;10.10;;
5175;SDS011;2607;50.934;6.934;2023-08-17T13:04:37;16.63;;;10.07;;
5175;SDS011;2607;50.934;6.934;2023-08-17T13:07:02;14.93;;;11.00;;
5175;SDS011;2607;50.934;6.934;2023-08-17T13:09:28;11.80;;;10.70;;
5175;SDS011;2607;50.934;6.934;2023-08-17T13:11:54;18.13;;;11.53;;
5175;SDS011;2607;50.934;6.934;2023-08-17T13:14:19;14.47;;;11.33;;
5175;SDS011;2607;50.934;6.934;2023-08-17T13:16:45;13.50;;;11.17;;
5175;SDS011;2607;50.934;6.934;2023-08-17T13:19:10;12.00;;;9.47;;
5175;SDS011;2607;50.934;6.934;2023-08-17T13:21:36;11.70;;;10.20;;
5175;SDS011;2607;50.934;6.934;2023-08-17T13:24:01;12.00;;;10.43;;
5175;SDS011;2607;50.934;6.934;2023-08-17T13:26:28;13.73;;;12.00;;
5175;SDS011;2607;50.934;6.934;2023-08-17T13:28:55;14.00;;;11.17;;
5175;SDS011;2607;50.934;6.934;2023-08-17T13:31:20;12.80;;;10.60;;
5175;SDS011;2607;50.934;6.934;2023-08-17T13:33:46;12.60;;;11.00;;
5175;SDS011;2607;50.934;6.934;2023-08-17T13:36:12;11.27;;;10.17;;
5175;SDS011;2607;50.934;6.934;2023-08-17T13:38:37;14.27;;;11.07;;
5175;SDS011;2607;50.934;6.934;2023-08-17T13:41:03;12.40;;;11.13;;
5175;SDS011;2607;50.934;6.934;2023-08-17T13:43:29;13.23;;;11.43;;
5175;SDS011;2607;50.934;6.934;2023-08-17T13:45:55;13.47;;;10.73;;
5175;SDS011;2607;50.934;6.934;2023-08-17T13:48:20;14.03;;;11.73;;
5175;SDS011;2607;50.934;6.934;2023-08-17T13:50:46;17.83;;;11.13;;
5175;SDS011;2607;50.934;6.934;2023-08-17T13:53:12;11.80;;;10.47;;
5175;SDS011;2607;50.934;6.934;2023-08-17T13:55:37;14.83;;;11.00;;
5175;SDS011;2607;50.934;6.934;2023-08-17T13:58:03;18.30;;;11.70;;
5175;SDS011;2607;50.934;6.934;2023-08-17T14:00:29;20.27;;;14.97;;
5175;SDS011;2607;50.934;6.934;2023-08-17T14:02:54;13.90;;;10.97;;
5175;SDS011;2607;50.934;6.934;2023-08-17T14:05:20;14.77;;;11.30;;
5175;SDS011;2607;50.934;6.934;2023-08-17T14:07:46;14.63;;;11.27;;
5175;SDS011;2607;50.934;6.934;2023-08-17T14:10:12;11.73;;;10.53;;
5175;SDS011;2607;50.934;6.934;2023-08-17T14:12:38;18.53;;;10.70;;
5175;SDS011;2607;50.934;6.934;2023-08-17T14:15:04;12.63;;;10.13;;
5175;SDS011;2607;50.934;6.934;2023-08-17T14:17:30;12.50;;;10.53;;
5175;SDS011;2607;50.934;6.934;2023-08-17T14:19:56;11.20;;;9.63;;
5175;SDS011;2607;50.934;6.934;2023-08-17T14:22:21;12.30;;;10.40;;
5175;SDS011;2607;50.934;6.934;2023-08-17T14:24:54;11.50;;;10.30;;
5175;SDS011;2607;50.934;6.934;2023-08-17T14:27:19;11.83;;;9.03;;
5175;SDS011;2607;50.934;6.934;2023-08-17T14:29:45;11.87;;;10.67;;
5175;SDS011;2607;50.934;6.934;2023-08-17T14:32:10;12.20;;;9.17;;
5175;SDS011;2607;50.934;6.934;2023-08-17T14:34:37;10.70;;;9.37;;
5175;SDS011;2607;50.934;6.934;2023-08-17T14:37:02;10.57;;;9.40;;
5175;SDS011;2607;50.934;6.934;2023-08-17T14:39:28;8.80;;;8.00;;
5175;SDS011;2607;50.934;6.934;2023-08-17T14:41:53;9.97;;;8.37;;
5175;SDS011;2607;50.934;6.934;2023-08-17T14:44:19;11.00;;;9.00;;
5175;SDS011;2607;50.934;6.934;2023-08-17T14:46:44;12.40;;;9.37;;
5175;SDS011;2607;50.934;6.934;2023-08-17T14:49:10;10.93;;;8.97;;
5175;SDS011;2607;50.934;6.934;2023-08-17T14:51:39;9.87;;;7.93;;
5175;SDS011;2607;50.934;6.934;2023-08-17T14:54:06;12.73;;;10.87;;
5175;SDS011;2607;50.934;6.934;2023-08-17T14:56:33;9.20;;;7.83;;
5175;SDS011;2607;50.934;6.934;2023-08-17T14:58:58;10.87;;;8.00;;
5175;SDS011;2607;50.934;6.934;2023-08-17T15:01:24;8.13;;;7.33;;
5175;SDS011;2607;50.934;6.934;2023-08-17T15:03:49;9.13;;;8.33;;